createdAt,value
2019-03-22T00:00:49.867Z,88.06
2019-03-22T00:01:49.868Z,88.73
2019-03-22T00:02:49.749Z,88.62
2019-03-22T00:03:49.745Z,88.84
2019-03-22T00:04:49.837Z,88.87
2019-03-22T00:05:49.706Z,89.19
2019-03-22T00:06:49.763Z,90.09
2019-03-22T00:07:49.695Z,89.29
2019-03-22T00:08:49.678Z,88.24
2019-03-22T00:09:49.759Z,87.72
2019-03-22T00:10:49.699Z,87.72
2019-03-22T00:11:49.695Z,87.83
2019-03-22T00:12:49.640Z,88.14
2019-03-22T00:13:49.656Z,88.07
2019-03-22T00:14:49.619Z,88.81
2019-03-22T00:17:17.154Z,89.09
2019-03-22T00:18:16.277Z,89.97
2019-03-22T00:19:16.290Z,88.81
2019-03-22T00:20:16.266Z,90.17
2019-03-22T00:21:16.283Z,90.70
2019-03-22T00:22:16.264Z,90.59
2019-03-22T00:23:16.232Z,90.28
2019-03-22T00:24:16.214Z,89.54
2019-03-22T00:25:16.229Z,90.38
2019-03-22T00:26:16.204Z,90.17
2019-03-22T00:27:18.118Z,89.23
2019-03-22T00:28:17.099Z,89.44
2019-03-22T00:29:16.637Z,88.92
2019-03-22T00:30:16.206Z,89.02
2019-03-22T00:31:16.146Z,90.22
2019-03-22T00:32:16.131Z,92.10
2019-03-22T00:33:16.127Z,92.63
2019-03-22T00:34:16.150Z,92.10
2019-03-22T00:35:16.107Z,90.74
2019-03-22T00:36:16.107Z,91.05
2019-03-22T00:37:16.092Z,90.84
2019-03-22T00:38:16.081Z,90.74
2019-03-22T00:39:16.088Z,92.21
2019-03-22T00:40:16.097Z,90.95
2019-03-22T00:41:16.052Z,90.22
2019-03-22T00:42:16.612Z,91.22
2019-03-22T00:43:16.051Z,91.33
2019-03-22T00:44:16.037Z,92.06
2019-03-22T00:45:16.004Z,91.85
2019-03-22T00:46:15.998Z,91.12
2019-03-22T00:47:15.990Z,90.91
2019-03-22T00:48:16.031Z,91.33
2019-03-22T00:49:15.991Z,90.17
2019-03-22T00:50:17.606Z,90.28
2019-03-22T00:51:15.942Z,89.23
2019-03-22T00:52:15.936Z,90.11
2019-03-22T00:53:15.924Z,90.32
2019-03-22T00:54:15.959Z,90.64
2019-03-22T00:55:15.932Z,89.69
2019-03-22T00:56:15.931Z,90.74
2019-03-22T00:57:27.721Z,90.42
2019-03-22T00:58:16.912Z,89.79
2019-03-22T00:59:18.596Z,90.32
2019-03-22T01:00:15.857Z,91.05
2019-03-22T01:01:15.846Z,91.37
2019-03-22T01:02:15.834Z,91.27
2019-03-22T01:03:15.831Z,91.89
2019-03-22T01:04:15.867Z,92.21
2019-03-22T01:05:15.809Z,92.25
2019-03-22T01:06:15.829Z,92.25
2019-03-22T01:07:15.789Z,92.14
2019-03-22T01:08:15.786Z,92.46
2019-03-22T01:09:15.797Z,92.25
2019-03-22T01:10:16.611Z,92.25
2019-03-22T01:11:16.594Z,92.46
2019-03-22T01:12:16.592Z,92.46
2019-03-22T01:13:15.756Z,91.94
2019-03-22T01:14:16.596Z,91.41
2019-03-22T01:15:15.707Z,92.14
2019-03-22T01:16:15.696Z,91.52
2019-03-22T01:17:15.719Z,90.40
2019-03-22T01:18:15.685Z,90.57
2019-03-22T01:19:15.687Z,91.45
2019-03-22T01:20:15.657Z,90.92
2019-03-22T01:21:15.642Z,90.82
2019-03-22T01:22:15.645Z,91.35
2019-03-22T01:23:15.658Z,91.45
2019-03-22T01:24:15.611Z,91.87
2019-03-22T01:25:15.642Z,93.34
2019-03-22T01:26:16.093Z,92.61
2019-03-22T01:27:15.604Z,93.44
2019-03-22T01:28:15.567Z,93.44
2019-03-22T01:29:15.602Z,92.40
2019-03-22T01:30:15.689Z,92.54
2019-03-22T01:31:15.544Z,92.44
2019-03-22T01:32:15.569Z,92.65
2019-03-22T01:33:16.094Z,92.54
2019-03-22T01:34:15.511Z,93.07
2019-03-22T01:35:15.528Z,92.86
2019-03-22T01:36:15.498Z,92.65
2019-03-22T01:37:15.481Z,92.86
2019-03-22T01:38:15.484Z,92.33
2019-03-22T01:39:15.499Z,91.91
2019-03-22T01:40:15.479Z,92.16
2019-03-22T01:41:15.440Z,93.22
2019-03-22T01:42:15.429Z,93.95
2019-03-22T01:43:16.056Z,94.37
2019-03-22T01:44:15.422Z,94.12
2019-03-22T01:45:15.437Z,93.49
2019-03-22T01:46:16.058Z,93.38
2019-03-22T01:47:16.174Z,93.74
2019-03-22T01:48:15.449Z,94.27
2019-03-22T01:49:15.420Z,93.70
2019-03-22T01:50:15.462Z,93.43
2019-03-22T01:51:15.339Z,93.43
2019-03-22T01:52:15.346Z,92.86
2019-03-22T01:53:15.315Z,93.18
2019-03-22T01:54:15.321Z,93.22
2019-03-22T01:55:15.393Z,92.16
2019-03-22T01:56:15.294Z,93.43
2019-03-22T01:57:15.314Z,93.63
2019-03-22T01:58:15.272Z,94.37
2019-03-22T01:59:15.264Z,94.69
2019-03-22T02:00:15.278Z,95.17
2019-03-22T02:01:15.283Z,95.17
2019-03-22T02:02:15.227Z,95.32
2019-03-22T02:03:15.213Z,94.90
2019-03-22T02:04:15.209Z,95.42
2019-03-22T02:05:15.230Z,95.53
2019-03-22T02:06:17.051Z,95.17
2019-03-22T02:07:15.214Z,94.65
2019-03-22T02:08:15.206Z,94.54
2019-03-22T02:09:15.154Z,94.65
2019-03-22T02:10:15.189Z,94.33
2019-03-22T02:11:15.131Z,92.96
2019-03-22T02:12:15.120Z,92.58
2019-03-22T02:13:15.154Z,92.38
2019-03-22T02:14:16.637Z,92.54
2019-03-22T02:15:15.103Z,93.43
2019-03-22T02:16:15.096Z,93.95
2019-03-22T02:17:15.070Z,94.48
2019-03-22T02:18:15.069Z,94.48
2019-03-22T02:19:15.073Z,95.64
2019-03-22T02:20:15.219Z,95.64
2019-03-22T02:21:15.085Z,95.74
2019-03-22T02:22:15.060Z,94.17
2019-03-22T02:23:15.055Z,95.32
2019-03-22T02:24:15.029Z,96.05
2019-03-22T02:25:14.994Z,95.64
2019-03-22T02:26:14.985Z,95.53
2019-03-22T02:27:14.982Z,95.00
2019-03-22T02:28:15.598Z,95.10
2019-03-22T02:29:15.012Z,93.95
2019-03-22T02:30:14.959Z,94.27
2019-03-22T02:31:14.942Z,94.17
2019-03-22T02:32:14.950Z,94.75
2019-03-22T02:33:14.917Z,93.53
2019-03-22T02:34:14.907Z,93.43
2019-03-22T02:35:27.655Z,93.01
2019-03-22T02:36:15.881Z,92.80
2019-03-22T02:37:14.883Z,92.10
2019-03-22T02:38:14.866Z,92.42
2019-03-22T02:39:15.146Z,93.15
2019-03-22T02:40:14.882Z,94.73
2019-03-22T02:41:14.842Z,94.73
2019-03-22T02:42:14.838Z,95.04
2019-03-22T02:43:14.812Z,95.68
2019-03-22T02:44:14.804Z,96.83
2019-03-22T02:45:14.829Z,96.26
2019-03-22T02:46:14.819Z,95.84
2019-03-22T02:47:14.789Z,95.95
2019-03-22T02:48:14.767Z,95.10
2019-03-22T02:49:14.761Z,94.48
2019-03-22T02:50:18.563Z,94.17
2019-03-22T02:51:14.741Z,94.06
2019-03-22T02:52:14.757Z,94.21
2019-03-22T02:53:14.713Z,93.63
2019-03-22T02:54:14.733Z,92.94
2019-03-22T02:55:14.706Z,92.52
2019-03-22T02:56:14.738Z,92.63
2019-03-22T02:57:14.698Z,92.73
2019-03-22T02:58:20.973Z,92.99
2019-03-22T02:59:15.653Z,94.46
2019-03-22T03:00:14.677Z,95.40
2019-03-22T03:01:14.679Z,96.25
2019-03-22T03:02:14.643Z,96.20
2019-03-22T03:03:14.610Z,95.93
2019-03-22T03:04:14.633Z,95.68
2019-03-22T03:05:14.597Z,95.68
2019-03-22T03:06:14.710Z,95.57
2019-03-22T03:07:14.589Z,93.89
2019-03-22T03:08:14.564Z,94.73
2019-03-22T03:09:14.549Z,95.57
2019-03-22T03:10:14.556Z,95.84
2019-03-22T03:11:14.651Z,94.52
2019-03-22T03:12:15.174Z,93.63
2019-03-22T03:13:14.566Z,94.42
2019-03-22T03:14:14.548Z,94.17
2019-03-22T03:15:14.523Z,94.48
2019-03-22T03:16:14.616Z,92.31
2019-03-22T03:17:14.554Z,92.00
2019-03-22T03:18:14.517Z,92.31
2019-03-22T03:19:14.505Z,92.73
2019-03-22T03:20:14.516Z,94.10
2019-03-22T03:21:14.610Z,95.42
2019-03-22T03:22:14.485Z,94.73
2019-03-22T03:23:14.468Z,94.79
2019-03-22T03:24:14.460Z,95.10
2019-03-22T03:25:14.451Z,95.64
2019-03-22T03:26:14.548Z,95.26
2019-03-22T03:27:14.414Z,95.47
2019-03-22T03:28:15.157Z,94.73
2019-03-22T03:29:14.415Z,94.52
2019-03-22T03:30:14.439Z,94.52
2019-03-22T03:31:16.177Z,93.19
2019-03-22T03:32:14.395Z,92.99
2019-03-22T03:33:14.466Z,92.57
2019-03-22T03:34:14.381Z,93.51
2019-03-22T03:35:14.349Z,92.99
2019-03-22T03:36:14.414Z,93.72
2019-03-22T03:37:15.135Z,94.56
2019-03-22T03:38:14.316Z,95.24
2019-03-22T03:39:14.299Z,95.76
2019-03-22T03:40:14.281Z,95.76
2019-03-22T03:41:14.360Z,95.87
2019-03-22T03:42:14.386Z,95.97
2019-03-22T03:43:14.375Z,95.03
2019-03-22T03:44:14.249Z,95.76
2019-03-22T03:45:14.252Z,97.13
2019-03-22T03:46:15.149Z,95.87
2019-03-22T03:47:14.251Z,95.34
2019-03-22T03:48:14.209Z,96.08
2019-03-22T03:49:14.325Z,95.34
2019-03-22T03:50:14.207Z,94.18
2019-03-22T03:51:14.170Z,93.76
2019-03-22T03:52:14.276Z,93.60
2019-03-22T03:53:15.124Z,94.44
2019-03-22T03:54:14.155Z,94.65
2019-03-22T03:55:14.156Z,94.60
2019-03-22T03:56:14.141Z,95.45
2019-03-22T03:57:14.214Z,95.76
2019-03-22T03:58:14.111Z,95.60
2019-03-22T03:59:14.102Z,95.81
2019-03-22T04:00:14.100Z,94.65
2019-03-22T04:01:14.086Z,94.23
2019-03-22T04:02:14.640Z,94.44
2019-03-22T04:03:14.130Z,94.34
2019-03-22T04:04:14.133Z,94.54
2019-03-22T04:05:14.681Z,95.53
2019-03-22T04:06:14.029Z,94.80
2019-03-22T04:07:14.098Z,95.11
2019-03-22T04:08:14.028Z,94.90
2019-03-22T04:09:14.005Z,94.90
2019-03-22T04:10:13.991Z,93.85
2019-03-22T04:11:13.985Z,93.99
2019-03-22T04:12:14.165Z,93.99
2019-03-22T04:13:13.981Z,93.57
2019-03-22T04:14:13.945Z,93.89
2019-03-22T04:15:14.013Z,94.84
2019-03-22T04:16:14.149Z,95.89
2019-03-22T04:17:13.920Z,96.00
2019-03-22T04:18:13.898Z,95.89
2019-03-22T04:19:13.932Z,96.11
2019-03-22T04:20:13.896Z,96.95
2019-03-22T04:21:13.950Z,96.00
2019-03-22T04:22:13.889Z,95.68
2019-03-22T04:23:13.882Z,96.73
2019-03-22T04:24:13.844Z,97.27
2019-03-22T04:25:13.845Z,95.89
2019-03-22T04:26:14.046Z,96.84
2019-03-22T04:27:13.821Z,97.05
2019-03-22T04:28:13.823Z,97.47
2019-03-22T04:29:13.789Z,97.05
2019-03-22T04:30:13.795Z,96.69
2019-03-22T04:31:13.867Z,97.11
2019-03-22T04:32:13.766Z,96.95
2019-03-22T04:33:13.764Z,96.63
2019-03-22T04:34:13.783Z,96.17
2019-03-22T04:35:13.749Z,95.75
2019-03-22T04:36:13.787Z,95.68
2019-03-22T04:37:13.728Z,95.57
2019-03-22T04:38:15.640Z,95.79
2019-03-22T04:39:14.627Z,96.11
2019-03-22T04:40:13.725Z,95.26
2019-03-22T04:41:13.754Z,94.95
2019-03-22T04:42:13.680Z,94.53
2019-03-22T04:43:13.663Z,94.78
2019-03-22T04:44:13.673Z,95.62
2019-03-22T04:45:13.645Z,95.83
2019-03-22T04:46:13.732Z,95.62
2019-03-22T04:47:13.629Z,94.99
2019-03-22T04:48:13.621Z,94.57
2019-03-22T04:49:13.626Z,94.25
2019-03-22T04:50:13.608Z,94.78
2019-03-22T04:51:14.119Z,94.08
2019-03-22T04:52:13.696Z,95.51
2019-03-22T04:53:13.561Z,96.95
2019-03-22T04:54:13.585Z,96.84
2019-03-22T04:55:13.520Z,97.16
2019-03-22T04:56:15.098Z,97.11
2019-03-22T04:57:14.131Z,96.27
2019-03-22T04:58:13.527Z,95.79
2019-03-22T04:59:19.472Z,95.37
2019-03-22T05:00:13.465Z,95.47
2019-03-22T05:01:13.442Z,96.31
2019-03-22T05:02:13.440Z,96.31
2019-03-22T05:03:13.437Z,96.11
2019-03-22T05:04:13.438Z,96.21
2019-03-22T05:05:13.469Z,96.91
2019-03-22T05:06:13.396Z,97.16
2019-03-22T05:07:13.386Z,97.16
2019-03-22T05:08:13.375Z,97.05
2019-03-22T05:09:13.366Z,96.95
2019-03-22T05:10:13.351Z,94.95
2019-03-22T05:11:13.362Z,95.68
2019-03-22T05:12:14.280Z,95.89
2019-03-22T05:13:13.348Z,96.11
2019-03-22T05:14:13.308Z,95.26
2019-03-22T05:15:13.301Z,96.59
2019-03-22T05:16:13.294Z,96.53
2019-03-22T05:17:13.280Z,95.32
2019-03-22T05:18:13.270Z,97.22
2019-03-22T05:19:13.297Z,97.39
2019-03-22T05:20:13.289Z,96.12
2019-03-22T05:21:13.243Z,96.29
2019-03-22T05:22:13.237Z,96.19
2019-03-22T05:23:13.245Z,95.28
2019-03-22T05:24:13.213Z,94.44
2019-03-22T05:25:13.199Z,94.69
2019-03-22T05:26:13.185Z,94.86
2019-03-22T05:27:13.208Z,94.38
2019-03-22T05:28:13.175Z,93.74
2019-03-22T05:29:13.157Z,91.74
2019-03-22T05:30:13.154Z,91.68
2019-03-22T05:31:13.144Z,92.63
2019-03-22T05:32:13.182Z,92.57
2019-03-22T05:33:13.122Z,92.88
2019-03-22T05:34:13.119Z,93.83
2019-03-22T05:35:13.102Z,94.71
2019-03-22T05:36:13.087Z,95.09
2019-03-22T05:37:13.106Z,95.51
2019-03-22T05:38:13.065Z,95.83
2019-03-22T05:39:13.060Z,95.09
2019-03-22T05:40:13.050Z,94.89
2019-03-22T05:41:13.868Z,94.25
2019-03-22T05:42:13.026Z,94.89
2019-03-22T05:43:13.017Z,95.94
2019-03-22T05:44:13.011Z,94.67
2019-03-22T05:45:13.002Z,95.05
2019-03-22T05:46:12.998Z,93.68
2019-03-22T05:47:13.005Z,92.80
2019-03-22T05:48:12.971Z,92.80
2019-03-22T05:49:12.968Z,92.48
2019-03-22T05:50:13.007Z,92.54
2019-03-22T05:51:12.943Z,91.70
2019-03-22T05:52:12.961Z,90.40
2019-03-22T05:53:12.916Z,89.87
2019-03-22T05:54:12.935Z,90.50
2019-03-22T05:55:12.928Z,92.35
2019-03-22T05:56:12.889Z,93.47
2019-03-22T05:57:13.962Z,93.74
2019-03-22T05:58:12.870Z,93.01
2019-03-22T05:59:12.856Z,92.54
2019-03-22T06:00:12.859Z,92.19
2019-03-22T06:01:12.846Z,92.04
2019-03-22T06:02:12.834Z,91.83
2019-03-22T06:03:12.879Z,91.27
2019-03-22T06:04:12.811Z,90.91
2019-03-22T06:05:12.802Z,89.34
2019-03-22T06:06:12.798Z,88.56
2019-03-22T06:07:13.583Z,87.83
2019-03-22T06:08:13.121Z,88.31
2019-03-22T06:09:12.794Z,87.74
2019-03-22T06:10:12.752Z,87.64
2019-03-22T06:11:12.736Z,86.60
2019-03-22T06:12:12.727Z,86.24
2019-03-22T06:13:12.722Z,85.61
2019-03-22T06:14:12.709Z,85.26
2019-03-22T06:15:12.739Z,84.32
2019-03-22T06:16:12.689Z,83.90
2019-03-22T06:17:12.676Z,83.76
2019-03-22T06:18:12.690Z,84.17
2019-03-22T06:19:12.654Z,83.93
2019-03-22T06:20:12.672Z,83.09
2019-03-22T06:21:12.635Z,83.47
2019-03-22T06:22:12.637Z,83.64
2019-03-22T06:23:12.637Z,82.50
2019-03-22T06:24:12.609Z,83.12
2019-03-22T06:25:12.599Z,81.21
2019-03-22T06:26:12.585Z,81.31
2019-03-22T06:27:12.581Z,81.27
2019-03-22T06:28:12.587Z,81.38
2019-03-22T06:29:12.573Z,82.17
2019-03-22T06:30:12.537Z,80.26
2019-03-22T06:31:12.568Z,79.63
2019-03-22T06:32:12.525Z,78.69
2019-03-22T06:33:12.550Z,79.22
2019-03-22T06:34:12.509Z,78.66
2019-03-22T06:35:12.486Z,78.56
2019-03-22T06:36:12.484Z,79.35
2019-03-22T06:37:12.471Z,78.80
2019-03-22T06:38:12.490Z,79.11
2019-03-22T06:39:12.454Z,78.17
2019-03-22T06:40:12.446Z,79.17
2019-03-22T06:41:12.425Z,79.17
2019-03-22T06:42:12.417Z,76.89
2019-03-22T06:43:12.432Z,77.89
2019-03-22T06:44:12.398Z,77.79
2019-03-22T06:45:12.387Z,78.27
2019-03-22T06:46:12.386Z,75.98
2019-03-22T06:47:12.365Z,75.64
2019-03-22T06:48:12.380Z,76.16
2019-03-22T06:49:12.348Z,75.60
2019-03-22T06:50:12.341Z,75.40
2019-03-22T06:51:12.325Z,74.11
2019-03-22T06:52:12.316Z,74.40
2019-03-22T06:53:12.344Z,75.33
2019-03-22T06:54:12.298Z,75.29
2019-03-22T06:55:12.282Z,73.43
2019-03-22T06:56:12.274Z,72.98
2019-03-22T06:57:12.261Z,72.94
2019-03-22T06:58:12.286Z,71.80
2019-03-22T06:59:12.270Z,71.25
2019-03-22T07:00:12.286Z,71.12
2019-03-22T07:01:12.233Z,70.81
2019-03-22T07:02:12.213Z,71.19
2019-03-22T07:03:12.237Z,71.39
2019-03-22T07:04:12.192Z,71.29
2019-03-22T07:05:13.552Z,70.84
2019-03-22T07:06:12.173Z,70.74
2019-03-22T07:07:12.182Z,71.26
2019-03-22T07:08:12.176Z,70.81
2019-03-22T07:09:12.144Z,70.64
2019-03-22T07:10:12.135Z,71.36
2019-03-22T07:11:12.153Z,71.47
2019-03-22T07:12:12.115Z,71.12
2019-03-22T07:13:12.131Z,70.09
2019-03-22T07:14:12.086Z,70.19
2019-03-22T07:15:12.088Z,70.67
2019-03-22T07:16:12.067Z,68.99
2019-03-22T07:17:12.059Z,68.58
2019-03-22T07:18:12.081Z,68.34
2019-03-22T07:19:12.039Z,67.07
2019-03-22T07:20:12.041Z,67.35
2019-03-22T07:21:12.022Z,66.28
2019-03-22T07:22:12.002Z,64.50
2019-03-22T07:23:12.025Z,65.02
2019-03-22T07:24:11.989Z,66.22
2019-03-22T07:25:11.968Z,64.17
2019-03-22T07:26:11.962Z,63.52
2019-03-22T07:27:11.960Z,61.77
2019-03-22T07:28:11.959Z,62.56
2019-03-22T07:29:11.925Z,61.81
2019-03-22T07:30:18.506Z,60.17
2019-03-22T07:31:12.903Z,59.73
2019-03-22T07:32:11.893Z,59.31
2019-03-22T07:33:11.999Z,59.29
2019-03-22T07:34:11.895Z,58.23
2019-03-22T07:35:11.881Z,57.62
2019-03-22T07:36:11.883Z,57.90
2019-03-22T07:37:11.840Z,57.26
2019-03-22T07:38:11.868Z,57.13
2019-03-22T07:39:12.578Z,56.71
2019-03-22T07:40:11.850Z,56.82
2019-03-22T07:41:11.856Z,55.46
2019-03-22T07:42:11.796Z,55.43
2019-03-22T07:43:12.618Z,55.02
2019-03-22T07:44:11.774Z,55.41
2019-03-22T07:45:11.790Z,53.54
2019-03-22T07:46:11.763Z,52.42
2019-03-22T07:47:11.741Z,52.11
2019-03-22T07:48:11.764Z,52.29
2019-03-22T07:49:11.717Z,52.39
2019-03-22T07:50:13.621Z,52.26
2019-03-22T07:51:11.747Z,51.34
2019-03-22T07:52:11.688Z,50.83
2019-03-22T07:53:11.763Z,50.63
2019-03-22T07:54:11.673Z,51.12
2019-03-22T07:55:14.586Z,49.96
2019-03-22T07:56:14.625Z,49.84
2019-03-22T07:57:11.649Z,48.82
2019-03-22T07:58:11.657Z,47.49
2019-03-22T07:59:11.660Z,46.98
2019-03-22T08:00:11.598Z,45.73
2019-03-22T08:01:14.590Z,46.94
2019-03-22T08:02:11.574Z,45.69
2019-03-22T08:03:11.603Z,45.16
2019-03-22T08:04:11.552Z,43.43
2019-03-22T08:05:14.084Z,42.39
2019-03-22T08:06:11.541Z,43.18
2019-03-22T08:07:13.151Z,42.35
2019-03-22T08:08:11.574Z,40.82
2019-03-22T08:09:11.540Z,41.74
2019-03-22T08:10:11.543Z,40.80
2019-03-22T08:11:11.717Z,38.99
2019-03-22T08:12:11.519Z,37.75
2019-03-22T08:13:11.488Z,39.66
2019-03-22T08:14:11.457Z,38.75
2019-03-22T08:15:11.454Z,39.64
2019-03-22T08:16:11.430Z,37.61
2019-03-22T08:17:11.419Z,38.32
2019-03-22T08:18:11.442Z,37.59
2019-03-22T08:19:12.095Z,38.81
2019-03-22T08:20:11.426Z,37.37
2019-03-22T08:21:11.414Z,37.80
2019-03-22T08:22:11.364Z,38.10
2019-03-22T08:23:12.125Z,36.56
2019-03-22T08:24:11.369Z,36.85
2019-03-22T08:25:11.346Z,37.13
2019-03-22T08:26:11.341Z,35.73
2019-03-22T08:27:13.106Z,35.53
2019-03-22T08:28:11.302Z,36.95
2019-03-22T08:29:11.352Z,35.82
2019-03-22T08:30:13.110Z,36.91
2019-03-22T08:31:12.087Z,35.90
2019-03-22T08:32:11.313Z,35.99
2019-03-22T08:33:12.058Z,36.98
2019-03-22T08:34:11.295Z,36.08
2019-03-22T08:35:11.290Z,36.63
2019-03-22T08:36:11.212Z,36.82
2019-03-22T08:37:11.200Z,36.41
2019-03-22T08:38:11.275Z,35.90
2019-03-22T08:39:11.248Z,36.98
2019-03-22T08:40:11.176Z,36.15
2019-03-22T08:41:11.162Z,36.44
2019-03-22T08:42:11.216Z,34.62
2019-03-22T08:43:11.182Z,34.11
2019-03-22T08:44:11.133Z,34.05
2019-03-22T08:45:11.475Z,34.13
2019-03-22T08:46:11.113Z,33.72
2019-03-22T08:47:11.173Z,34.43
2019-03-22T08:48:11.108Z,34.34
2019-03-22T08:49:11.202Z,34.95
2019-03-22T08:50:11.144Z,33.71
2019-03-22T08:51:11.076Z,32.38
2019-03-22T08:52:11.076Z,33.17
2019-03-22T08:53:11.037Z,32.48
2019-03-22T08:54:11.056Z,32.98
2019-03-22T08:55:11.015Z,33.50
2019-03-22T08:56:11.047Z,33.00
2019-03-22T08:57:11.017Z,33.18
2019-03-22T08:58:10.991Z,33.46
2019-03-22T08:59:13.360Z,32.24
2019-03-22T09:00:11.045Z,32.64
2019-03-22T09:01:10.970Z,31.29
2019-03-22T09:02:10.961Z,31.38
2019-03-22T09:03:10.929Z,30.46
2019-03-22T09:04:10.952Z,30.67
2019-03-22T09:05:10.941Z,31.46
2019-03-22T09:06:10.919Z,31.16
2019-03-22T09:07:10.879Z,31.09
2019-03-22T09:08:12.612Z,31.68
2019-03-22T09:09:10.910Z,31.39
2019-03-22T09:10:10.904Z,31.36
2019-03-22T09:11:10.844Z,31.03
2019-03-22T09:12:10.897Z,31.00
2019-03-22T09:13:10.869Z,30.82
2019-03-22T09:14:11.554Z,29.72
2019-03-22T09:15:11.599Z,30.74
2019-03-22T09:16:10.856Z,30.44
2019-03-22T09:17:10.784Z,30.74
2019-03-22T09:18:10.841Z,29.82
2019-03-22T09:19:10.759Z,30.40
2019-03-22T09:20:10.842Z,29.27
2019-03-22T09:21:10.737Z,29.19
2019-03-22T09:22:10.760Z,30.32
2019-03-22T09:23:10.750Z,30.68
2019-03-22T09:24:10.783Z,28.64
2019-03-22T09:25:10.705Z,28.02
2019-03-22T09:26:10.695Z,28.11
2019-03-22T09:27:10.692Z,28.20
2019-03-22T09:28:10.763Z,27.37
2019-03-22T09:29:10.669Z,26.87
2019-03-22T09:30:10.685Z,26.90
2019-03-22T09:31:11.349Z,28.20
2019-03-22T09:32:10.642Z,28.41
2019-03-22T09:33:13.333Z,28.52
2019-03-22T09:34:10.631Z,27.91
2019-03-22T09:35:11.160Z,27.37
2019-03-22T09:36:10.593Z,27.06
2019-03-22T09:37:10.589Z,26.84
2019-03-22T09:38:13.053Z,28.02
2019-03-22T09:39:10.592Z,27.25
2019-03-22T09:40:10.576Z,26.96
2019-03-22T09:41:10.584Z,27.48
2019-03-22T09:42:10.514Z,26.76
2019-03-22T09:43:10.526Z,27.35
2019-03-22T09:44:10.539Z,27.23
2019-03-22T09:45:10.564Z,26.71
2019-03-22T09:46:10.471Z,25.20
2019-03-22T09:47:10.455Z,25.99
2019-03-22T09:48:10.455Z,25.20
2019-03-22T09:49:10.475Z,25.42
2019-03-22T09:50:10.426Z,26.10
2019-03-22T09:51:10.440Z,25.98
2019-03-22T09:52:12.142Z,26.06
2019-03-22T09:53:11.114Z,24.35
2019-03-22T09:54:10.448Z,24.63
2019-03-22T09:55:13.713Z,24.04
2019-03-22T09:56:10.376Z,24.24
2019-03-22T09:57:10.403Z,24.04
2019-03-22T09:58:10.432Z,24.13
2019-03-22T09:59:10.389Z,24.32
2019-03-22T10:00:11.174Z,23.53
2019-03-22T10:01:23.204Z,22.82
2019-03-22T10:02:11.327Z,23.05
2019-03-22T10:03:10.412Z,24.85
2019-03-22T10:04:10.306Z,22.84
2019-03-22T10:05:11.134Z,23.85
2019-03-22T10:06:11.095Z,24.86
2019-03-22T10:07:10.314Z,24.65
2019-03-22T10:08:10.242Z,23.64
2019-03-22T10:09:10.249Z,22.23
2019-03-22T10:10:10.220Z,23.02
2019-03-22T10:11:10.210Z,22.42
2019-03-22T10:12:10.225Z,23.11
2019-03-22T10:13:12.088Z,22.82
2019-03-22T10:14:10.200Z,22.73
2019-03-22T10:15:11.225Z,23.05
2019-03-22T10:16:10.155Z,23.94
2019-03-22T10:17:10.196Z,23.72
2019-03-22T10:18:11.177Z,23.00
2019-03-22T10:19:10.230Z,21.72
2019-03-22T10:20:10.109Z,22.51
2019-03-22T10:21:21.846Z,22.10
2019-03-22T10:22:11.092Z,22.12
2019-03-22T10:23:10.174Z,23.00
2019-03-22T10:24:10.087Z,21.41
2019-03-22T10:25:10.092Z,21.60
2019-03-22T10:26:10.588Z,22.00
2019-03-22T10:27:10.127Z,23.10
2019-03-22T10:28:10.033Z,23.10
2019-03-22T10:29:10.072Z,21.88
2019-03-22T10:30:10.013Z,21.57
2019-03-22T10:31:09.991Z,22.27
2019-03-22T10:32:10.706Z,21.96
2019-03-22T10:34:19.975Z,20.56
2019-03-22T10:35:25.854Z,21.16
2019-03-22T10:36:20.746Z,21.57
2019-03-22T10:37:19.798Z,21.57
2019-03-22T10:38:31.140Z,21.28
2019-03-22T10:39:20.717Z,22.18
2019-03-22T10:40:19.700Z,22.60
2019-03-22T10:41:19.657Z,22.14
2019-03-22T10:42:19.649Z,23.32
2019-03-22T10:43:19.647Z,21.80
2019-03-22T10:44:19.646Z,22.18
2019-03-22T10:45:19.648Z,21.77
2019-03-22T10:46:19.614Z,21.97
2019-03-22T10:47:19.662Z,20.97
2019-03-22T10:48:19.579Z,21.96
2019-03-22T10:49:19.753Z,24.07
2019-03-22T10:50:19.630Z,22.85
2019-03-22T10:51:21.537Z,23.15
2019-03-22T10:52:19.606Z,20.94
2019-03-22T10:53:19.608Z,20.92
2019-03-22T10:54:19.582Z,21.43
2019-03-22T10:55:29.751Z,22.03
2019-03-22T10:56:20.599Z,22.08
2019-03-22T10:57:19.487Z,22.89
2019-03-22T10:58:21.346Z,23.49
2019-03-22T10:59:19.469Z,22.96
2019-03-22T11:00:19.487Z,22.27
2019-03-22T11:01:19.448Z,21.27
2019-03-22T11:02:19.433Z,20.95
2019-03-22T11:03:19.426Z,20.73
2019-03-22T11:04:19.472Z,19.92
2019-03-22T11:05:19.401Z,20.00
2019-03-22T11:06:25.991Z,19.98
2019-03-22T11:07:20.390Z,19.79
2019-03-22T11:08:19.383Z,19.89
2019-03-22T11:09:19.367Z,20.00
2019-03-22T11:10:19.373Z,20.83
2019-03-22T11:11:19.362Z,21.04
2019-03-22T11:12:19.361Z,21.63
2019-03-22T11:13:19.336Z,21.62
2019-03-22T11:14:19.325Z,21.52
2019-03-22T11:15:19.332Z,20.84
2019-03-22T11:16:19.294Z,21.43
2019-03-22T11:17:19.288Z,21.84
2019-03-22T11:18:19.286Z,21.64
2019-03-22T11:19:19.279Z,22.72
2019-03-22T11:20:19.295Z,21.82
2019-03-22T11:21:19.247Z,21.91
2019-03-22T11:22:19.236Z,20.98
2019-03-22T11:23:19.214Z,20.87
2019-03-22T11:24:19.211Z,20.87
2019-03-22T11:25:19.304Z,21.46
2019-03-22T11:26:19.185Z,21.85
2019-03-22T11:27:19.189Z,20.78
2019-03-22T11:28:19.171Z,21.96
2019-03-22T11:29:19.154Z,20.89
2019-03-22T11:30:19.185Z,21.89
2019-03-22T11:31:27.424Z,22.29
2019-03-22T11:32:20.158Z,23.11
2019-03-22T11:33:19.117Z,23.71
2019-03-22T11:34:19.113Z,21.74
2019-03-22T11:35:19.124Z,23.60
2019-03-22T11:36:19.080Z,22.22
2019-03-22T11:37:19.073Z,22.00
2019-03-22T11:38:19.085Z,20.98
2019-03-22T11:39:19.048Z,21.66
2019-03-22T11:40:19.071Z,20.16
2019-03-22T11:41:19.036Z,19.56
2019-03-22T11:42:19.019Z,20.00
2019-03-22T11:43:19.983Z,20.79
2019-03-22T11:44:19.007Z,20.18
2019-03-22T11:45:19.067Z,20.86
2019-03-22T11:46:18.979Z,20.47
2019-03-22T11:47:18.974Z,20.98
2019-03-22T11:48:18.958Z,20.76
2019-03-22T11:49:19.482Z,21.13
2019-03-22T11:50:18.949Z,20.23
2019-03-22T11:51:18.967Z,19.13
2019-03-22T11:52:18.925Z,18.24
2019-03-22T11:53:18.911Z,18.54
2019-03-22T11:54:18.893Z,19.07
2019-03-22T11:55:18.925Z,19.44
2019-03-22T11:56:18.882Z,19.55
2019-03-22T11:57:18.889Z,20.35
2019-03-22T11:58:18.870Z,20.92
2019-03-22T11:59:18.853Z,19.65
2019-03-22T12:00:18.865Z,19.26
2019-03-22T12:01:21.304Z,19.07
2019-03-22T12:02:22.546Z,19.79
2019-03-22T12:03:18.811Z,19.31
2019-03-22T12:04:18.799Z,19.29
2019-03-22T12:05:18.790Z,18.58
2019-03-22T12:06:18.790Z,18.17
2019-03-22T12:07:18.892Z,18.06
2019-03-22T12:08:18.764Z,18.35
2019-03-22T12:09:18.761Z,18.34
2019-03-22T12:10:18.769Z,18.34
2019-03-22T12:11:18.734Z,19.38
2019-03-22T12:12:18.718Z,19.41
2019-03-22T12:13:18.711Z,20.00
2019-03-22T12:14:18.710Z,19.81
2019-03-22T12:15:18.723Z,20.34
2019-03-22T12:16:18.682Z,21.04
2019-03-22T12:17:18.668Z,19.84
2019-03-22T12:18:18.662Z,20.84
2019-03-22T12:19:18.651Z,19.15
2019-03-22T12:20:18.675Z,19.52
2019-03-22T12:21:18.630Z,19.11
2019-03-22T12:22:18.619Z,18.52
2019-03-22T12:23:18.616Z,18.71
2019-03-22T12:24:18.779Z,17.99
2019-03-22T12:25:18.616Z,18.98
2019-03-22T12:26:18.581Z,20.76
2019-03-22T12:27:18.573Z,19.68
2019-03-22T12:28:18.569Z,18.97
2019-03-22T12:29:18.558Z,17.56
2019-03-22T12:30:18.565Z,17.73
2019-03-22T12:31:19.495Z,17.55
2019-03-22T12:32:18.524Z,17.14
2019-03-22T12:33:18.513Z,16.54
2019-03-22T12:34:18.502Z,16.62
2019-03-22T12:35:18.539Z,15.34
2019-03-22T12:36:18.475Z,16.05
2019-03-22T12:37:18.472Z,17.17
2019-03-22T12:38:18.470Z,18.06
2019-03-22T12:39:18.446Z,17.64
2019-03-22T12:40:18.482Z,17.24
2019-03-22T12:41:18.440Z,16.62
2019-03-22T12:42:18.423Z,16.22
2019-03-22T12:43:18.420Z,15.33
2019-03-22T12:44:18.401Z,16.12
2019-03-22T12:45:18.431Z,16.41
2019-03-22T12:46:18.381Z,16.89
2019-03-22T12:47:18.376Z,16.21
2019-03-22T12:48:18.375Z,17.52
2019-03-22T12:49:18.361Z,18.05
2019-03-22T12:50:18.353Z,16.86
2019-03-22T12:51:18.369Z,17.94
2019-03-22T12:52:18.324Z,17.33
2019-03-22T12:53:18.318Z,17.61
2019-03-22T12:54:18.305Z,16.32
2019-03-22T12:55:18.347Z,16.92